createdAt,value
2022-10-25T00:00:03.502Z,14.06
2022-10-25T00:01:03.622Z,14.06
2022-10-25T00:02:03.590Z,14.06
2022-10-25T00:03:03.500Z,14.00
2022-10-25T00:04:03.584Z,14.00
2022-10-25T00:05:03.591Z,14.00
2022-10-25T00:06:03.668Z,14.00
2022-10-25T00:07:03.734Z,14.00
2022-10-25T00:08:03.745Z,14.06
2022-10-25T00:09:03.830Z,14.00
2022-10-25T00:10:04.077Z,14.06
2022-10-25T00:11:04.309Z,14.00
2022-10-25T00:12:04.387Z,14.06
2022-10-25T00:13:04.442Z,14.06
2022-10-25T00:14:04.375Z,14.06
2022-10-25T00:15:03.499Z,14.06
2022-10-25T00:16:03.583Z,14.06
2022-10-25T00:17:03.663Z,14.06
2022-10-25T00:18:03.749Z,14.06
2022-10-25T00:19:04.207Z,14.06
2022-10-25T00:20:03.754Z,14.06
2022-10-25T00:21:03.711Z,14.06
2022-10-25T00:22:03.744Z,14.06
2022-10-25T00:23:03.905Z,14.06
2022-10-25T00:24:03.918Z,14.06
2022-10-25T00:25:03.930Z,14.06
2022-10-25T00:26:03.987Z,14.06
2022-10-25T00:27:03.898Z,14.00
2022-10-25T00:28:03.990Z,14.00
2022-10-25T00:29:03.978Z,14.00
2022-10-25T00:30:04.070Z,14.00
2022-10-25T00:31:04.062Z,14.00
2022-10-25T00:32:04.152Z,14.00
2022-10-25T00:33:04.149Z,14.00
2022-10-25T00:34:04.067Z,14.00
2022-10-25T00:35:04.144Z,14.00
2022-10-25T00:36:04.229Z,14.00
2022-10-25T00:37:04.305Z,14.00
2022-10-25T00:38:04.405Z,14.00
2022-10-25T00:39:03.504Z,14.00
2022-10-25T00:40:03.575Z,13.94
2022-10-25T00:41:03.579Z,13.94
2022-10-25T00:42:03.680Z,13.94
2022-10-25T00:43:03.753Z,13.94
2022-10-25T00:44:03.686Z,13.88
2022-10-25T00:45:03.776Z,13.88
2022-10-25T00:46:03.679Z,13.88
2022-10-25T00:47:03.662Z,13.88
2022-10-25T00:48:03.746Z,13.88
2022-10-25T00:49:03.830Z,13.88
2022-10-25T00:50:03.815Z,13.88
2022-10-25T00:51:03.821Z,13.81
2022-10-25T00:52:03.906Z,13.81
2022-10-25T00:53:03.897Z,13.81
2022-10-25T00:54:03.995Z,13.81
2022-10-25T00:55:03.982Z,13.81
2022-10-25T00:56:04.007Z,13.75
2022-10-25T00:57:03.896Z,13.75
2022-10-25T00:58:04.071Z,13.75
2022-10-25T00:59:03.987Z,13.75
2022-10-25T01:00:04.148Z,13.75
2022-10-25T01:01:04.287Z,13.69
2022-10-25T01:02:04.268Z,13.69
2022-10-25T01:03:04.253Z,13.69
2022-10-25T01:04:04.301Z,13.69
2022-10-25T01:05:04.315Z,13.69
2022-10-25T01:06:04.316Z,13.62
2022-10-25T01:07:04.250Z,13.62
2022-10-25T01:08:04.307Z,13.62
2022-10-25T01:09:04.218Z,13.62
2022-10-25T01:10:04.411Z,13.62
2022-10-25T01:11:03.604Z,13.62
2022-10-25T01:12:03.537Z,13.62
2022-10-25T01:13:03.623Z,13.62
2022-10-25T01:14:03.613Z,13.62
2022-10-25T01:15:03.709Z,13.62
2022-10-25T01:16:03.687Z,13.62
2022-10-25T01:17:03.666Z,13.62
2022-10-25T01:18:03.772Z,13.62
2022-10-25T01:19:03.738Z,13.56
2022-10-25T01:20:04.055Z,13.56
2022-10-25T01:21:04.147Z,13.62
2022-10-25T01:22:04.147Z,13.56
2022-10-25T01:23:04.308Z,13.56
2022-10-25T01:24:04.380Z,13.56
2022-10-25T01:25:04.232Z,13.56
2022-10-25T01:26:04.392Z,13.56
2022-10-25T01:27:03.507Z,13.56
2022-10-25T01:28:03.607Z,13.56
2022-10-25T01:29:04.392Z,13.56
2022-10-25T01:30:04.394Z,13.56
2022-10-25T01:31:04.386Z,13.56
2022-10-25T01:32:04.465Z,13.56
2022-10-25T01:33:04.385Z,13.56
2022-10-25T01:34:03.586Z,13.56
2022-10-25T01:35:03.584Z,13.56
2022-10-25T01:36:03.635Z,13.56
2022-10-25T01:37:03.598Z,13.56
2022-10-25T01:38:03.586Z,13.56
2022-10-25T01:39:03.610Z,13.56
2022-10-25T01:40:03.682Z,13.56
2022-10-25T01:41:03.665Z,13.56
2022-10-25T01:42:03.668Z,13.56
2022-10-25T01:43:03.674Z,13.56
2022-10-25T01:44:03.586Z,13.62
2022-10-25T01:45:03.657Z,13.62
2022-10-25T01:46:03.742Z,13.62
2022-10-25T01:47:03.743Z,13.62
2022-10-25T01:48:03.769Z,13.62
2022-10-25T01:49:04.099Z,13.62
2022-10-25T01:50:04.082Z,13.62
2022-10-25T01:51:04.069Z,13.62
2022-10-25T01:52:03.981Z,13.62
2022-10-25T01:53:04.068Z,13.69
2022-10-25T01:54:04.073Z,13.69
2022-10-25T01:55:04.079Z,13.69
2022-10-25T01:56:04.142Z,13.69
2022-10-25T01:57:04.222Z,13.69
2022-10-25T01:58:04.152Z,13.69
2022-10-25T01:59:04.139Z,13.69
2022-10-25T02:00:04.318Z,13.69
2022-10-25T02:01:04.320Z,13.69
2022-10-25T02:02:04.395Z,13.69
2022-10-25T02:03:04.303Z,13.75
2022-10-25T02:04:04.467Z,13.75
2022-10-25T02:05:04.393Z,13.75
2022-10-25T02:06:04.470Z,13.75
2022-10-25T02:07:03.595Z,13.75
2022-10-25T02:08:03.506Z,13.75
2022-10-25T02:09:03.512Z,13.75
2022-10-25T02:10:03.510Z,13.75
2022-10-25T02:11:04.460Z,13.75
2022-10-25T02:12:03.506Z,13.81
2022-10-25T02:13:03.501Z,13.81
2022-10-25T02:14:03.597Z,13.81
2022-10-25T02:15:03.591Z,13.81
2022-10-25T02:16:04.546Z,13.81
2022-10-25T02:17:03.746Z,13.81
2022-10-25T02:18:03.902Z,13.81
2022-10-25T02:19:03.990Z,13.81
2022-10-25T02:20:04.381Z,13.81
2022-10-25T02:21:03.498Z,13.81
2022-10-25T02:22:03.664Z,13.81
2022-10-25T02:23:03.587Z,13.75
2022-10-25T02:24:03.820Z,13.75
2022-10-25T02:25:03.675Z,13.75
2022-10-25T02:26:03.757Z,13.69
2022-10-25T02:27:03.741Z,13.69
2022-10-25T02:28:03.744Z,13.69
2022-10-25T02:29:04.149Z,13.69
2022-10-25T02:30:04.147Z,13.62
2022-10-25T02:31:04.308Z,13.62
2022-10-25T02:32:03.496Z,13.62
2022-10-25T02:33:03.502Z,13.62
2022-10-25T02:34:03.581Z,13.56
2022-10-25T02:35:03.640Z,13.56
2022-10-25T02:36:03.580Z,13.56
2022-10-25T02:37:03.665Z,13.56
2022-10-25T02:38:03.711Z,13.56
2022-10-25T02:39:03.660Z,13.50
2022-10-25T02:40:03.741Z,13.50
2022-10-25T02:41:03.741Z,13.50
2022-10-25T02:42:03.748Z,13.50
2022-10-25T02:43:03.656Z,13.44
2022-10-25T02:44:04.058Z,13.44
2022-10-25T02:45:04.056Z,13.44
2022-10-25T02:46:04.056Z,13.44
2022-10-25T02:47:04.395Z,13.44
2022-10-25T02:48:04.307Z,13.44
2022-10-25T02:49:04.486Z,13.38
2022-10-25T02:50:04.384Z,13.38
2022-10-25T02:51:04.495Z,13.38
2022-10-25T02:52:04.395Z,13.38
2022-10-25T02:53:03.511Z,13.38
2022-10-25T02:54:03.669Z,13.31
2022-10-25T02:55:03.586Z,13.31
2022-10-25T02:56:03.661Z,13.31
2022-10-25T02:57:03.822Z,13.31
2022-10-25T02:58:03.756Z,13.31
2022-10-25T02:59:04.063Z,13.31
2022-10-25T03:00:04.244Z,13.25
2022-10-25T03:01:04.278Z,13.25
2022-10-25T03:02:04.274Z,13.31
2022-10-25T03:03:04.304Z,13.25
2022-10-25T03:04:04.223Z,13.25
2022-10-25T03:05:04.387Z,13.25
2022-10-25T03:06:03.497Z,13.25
2022-10-25T03:07:04.460Z,13.31
2022-10-25T03:08:04.556Z,13.31
2022-10-25T03:09:03.506Z,13.25
2022-10-25T03:10:04.473Z,13.31
2022-10-25T03:11:03.510Z,13.31
2022-10-25T03:12:03.600Z,13.31
2022-10-25T03:13:04.385Z,13.25
2022-10-25T03:14:04.469Z,13.31
2022-10-25T03:15:04.377Z,13.25
2022-10-25T03:16:03.502Z,13.31
2022-10-25T03:17:03.596Z,13.31
2022-10-25T03:18:03.913Z,13.31
2022-10-25T03:19:03.901Z,13.31
2022-10-25T03:20:03.820Z,13.31
2022-10-25T03:21:03.911Z,13.38
2022-10-25T03:22:03.913Z,13.38
2022-10-25T03:23:03.920Z,13.38
2022-10-25T03:24:03.906Z,13.38
2022-10-25T03:25:04.072Z,13.38
2022-10-25T03:26:03.918Z,13.38
2022-10-25T03:27:03.860Z,13.38
2022-10-25T03:28:03.868Z,13.38
2022-10-25T03:29:04.067Z,13.38
2022-10-25T03:30:04.072Z,13.38
2022-10-25T03:31:04.069Z,13.44
2022-10-25T03:32:04.141Z,13.44
2022-10-25T03:33:04.231Z,13.44
2022-10-25T03:34:04.138Z,13.44
2022-10-25T03:35:04.317Z,13.44
2022-10-25T03:36:04.381Z,13.44
2022-10-25T03:37:04.396Z,13.44
2022-10-25T03:38:04.462Z,13.50
2022-10-25T03:39:04.466Z,13.50
2022-10-25T03:40:04.468Z,13.44
2022-10-25T03:41:03.576Z,13.44
2022-10-25T03:42:03.590Z,13.44
2022-10-25T03:43:03.593Z,13.44
2022-10-25T03:44:03.583Z,13.38
2022-10-25T03:45:03.664Z,13.38
2022-10-25T03:46:03.749Z,13.38
2022-10-25T03:47:03.745Z,13.38
2022-10-25T03:48:03.504Z,13.38
2022-10-25T03:49:03.696Z,13.31
2022-10-25T03:50:03.760Z,13.31
2022-10-25T03:51:03.743Z,13.31
2022-10-25T03:52:05.067Z,13.31
2022-10-25T03:53:04.175Z,13.31
2022-10-25T03:54:04.152Z,13.31
2022-10-25T03:55:04.145Z,13.25
2022-10-25T03:56:04.141Z,13.31
2022-10-25T03:57:04.227Z,13.25
2022-10-25T03:58:04.302Z,13.25
2022-10-25T03:59:04.306Z,13.25
2022-10-25T04:00:04.484Z,13.25
2022-10-25T04:01:04.603Z,13.25
2022-10-25T04:02:04.595Z,13.25
2022-10-25T04:03:04.447Z,13.25
2022-10-25T04:04:04.407Z,13.25
2022-10-25T04:05:03.505Z,13.19
2022-10-25T04:06:03.661Z,13.19
2022-10-25T04:07:03.742Z,13.19
2022-10-25T04:08:03.828Z,13.19
2022-10-25T04:09:03.823Z,13.19
2022-10-25T04:10:03.841Z,13.19
2022-10-25T04:11:03.931Z,13.12
2022-10-25T04:12:03.907Z,13.12
2022-10-25T04:13:03.989Z,13.12
2022-10-25T04:14:03.976Z,13.12
2022-10-25T04:15:03.896Z,13.12
2022-10-25T04:16:03.907Z,13.12
2022-10-25T04:17:04.070Z,13.12
2022-10-25T04:18:03.983Z,13.12
2022-10-25T04:19:04.073Z,13.06
2022-10-25T04:20:03.993Z,13.12
2022-10-25T04:21:03.988Z,13.12
2022-10-25T04:22:03.995Z,13.06
2022-10-25T04:23:04.138Z,13.06
2022-10-25T04:24:04.457Z,13.06
2022-10-25T04:25:04.484Z,13.06
2022-10-25T04:26:03.588Z,13.06
2022-10-25T04:27:03.671Z,13.06
2022-10-25T04:28:03.756Z,13.06
2022-10-25T04:29:03.754Z,13.06
2022-10-25T04:30:03.671Z,13.00
2022-10-25T04:31:03.746Z,13.00
2022-10-25T04:32:03.865Z,13.06
2022-10-25T04:33:03.749Z,13.06
2022-10-25T04:34:03.904Z,13.06
2022-10-25T04:35:03.903Z,13.06
2022-10-25T04:36:04.005Z,13.06
2022-10-25T04:37:03.982Z,13.00
2022-10-25T04:38:03.905Z,13.00
2022-10-25T04:39:03.896Z,13.00
2022-10-25T04:40:03.986Z,13.00
2022-10-25T04:41:04.070Z,12.94
2022-10-25T04:42:04.192Z,12.94
2022-10-25T04:43:04.227Z,12.94
2022-10-25T04:44:04.143Z,12.94
2022-10-25T04:45:04.306Z,12.94
2022-10-25T04:46:04.302Z,13.00
2022-10-25T04:47:04.469Z,12.94
2022-10-25T04:48:04.461Z,13.00
2022-10-25T04:49:04.463Z,13.00
2022-10-25T04:50:03.509Z,13.00
2022-10-25T04:51:04.459Z,13.00
2022-10-25T04:52:04.472Z,13.00
2022-10-25T04:53:04.477Z,13.00
2022-10-25T04:54:04.416Z,13.00
2022-10-25T04:55:04.386Z,13.00
2022-10-25T04:56:04.385Z,13.06
2022-10-25T04:57:03.514Z,13.06
2022-10-25T04:58:04.464Z,13.06
2022-10-25T04:59:03.636Z,13.06
2022-10-25T05:00:03.587Z,13.06
2022-10-25T05:01:03.581Z,13.12
2022-10-25T05:02:03.509Z,13.12
2022-10-25T05:03:03.854Z,13.12
2022-10-25T05:04:03.900Z,13.12
2022-10-25T05:05:03.907Z,13.12
2022-10-25T05:06:03.987Z,13.06
2022-10-25T05:07:03.985Z,13.06
2022-10-25T05:08:03.986Z,13.06
2022-10-25T05:09:04.238Z,13.06
2022-10-25T05:10:04.219Z,13.06
2022-10-25T05:11:04.309Z,13.06
2022-10-25T05:12:04.396Z,13.06
2022-10-25T05:13:04.300Z,13.00
2022-10-25T05:14:04.386Z,13.00
2022-10-25T05:15:03.508Z,13.00
2022-10-25T05:16:03.504Z,13.00
2022-10-25T05:17:03.670Z,13.00
2022-10-25T05:18:03.827Z,13.00
2022-10-25T05:19:03.759Z,13.00
2022-10-25T05:20:03.827Z,12.94
2022-10-25T05:21:03.752Z,12.94
2022-10-25T05:22:03.740Z,12.94
2022-10-25T05:23:03.743Z,12.94
2022-10-25T05:24:03.746Z,12.88
2022-10-25T05:25:03.739Z,12.88
2022-10-25T05:26:03.738Z,12.88
2022-10-25T05:27:03.848Z,12.88
2022-10-25T05:28:04.066Z,12.88
2022-10-25T05:29:06.676Z,12.88
2022-10-25T05:30:04.062Z,12.88
2022-10-25T05:31:03.664Z,12.81
2022-10-25T05:32:03.506Z,12.81
2022-10-25T05:33:04.746Z,12.81
2022-10-25T05:34:03.668Z,12.81
2022-10-25T05:35:03.690Z,12.81
2022-10-25T05:36:03.763Z,12.81
2022-10-25T05:37:03.591Z,12.81
2022-10-25T05:38:03.671Z,12.81
2022-10-25T05:39:03.586Z,12.81
2022-10-25T05:40:03.606Z,12.81
2022-10-25T05:41:03.587Z,12.81
2022-10-25T05:42:03.598Z,12.81
2022-10-25T05:43:03.584Z,12.81
2022-10-25T05:44:03.497Z,12.81
2022-10-25T05:45:04.063Z,12.81
2022-10-25T05:46:04.143Z,12.81
2022-10-25T05:47:04.062Z,12.81
2022-10-25T05:48:04.139Z,12.81
2022-10-25T05:49:04.139Z,12.81
2022-10-25T05:50:04.230Z,12.81
2022-10-25T05:51:08.572Z,12.81
2022-10-25T05:52:04.307Z,12.81
2022-10-25T05:53:04.243Z,12.81
2022-10-25T05:54:04.227Z,12.88
2022-10-25T05:55:04.386Z,12.81
2022-10-25T05:56:04.308Z,12.81
2022-10-25T05:57:04.479Z,12.81
2022-10-25T05:58:04.385Z,12.81
2022-10-25T05:59:04.394Z,12.81
2022-10-25T06:00:04.342Z,12.81
2022-10-25T06:01:04.436Z,12.75
2022-10-25T06:02:04.439Z,12.75
2022-10-25T06:03:04.406Z,12.75
2022-10-25T06:04:04.220Z,12.75
2022-10-25T06:05:04.319Z,12.75
2022-10-25T06:06:04.304Z,12.75
2022-10-25T06:07:04.387Z,12.81
2022-10-25T06:08:03.508Z,12.81
2022-10-25T06:09:03.589Z,12.81
2022-10-25T06:10:06.000Z,12.81
2022-10-25T06:11:03.506Z,12.81
2022-10-25T06:12:03.966Z,12.81
2022-10-25T06:13:03.676Z,12.81
2022-10-25T06:14:03.757Z,12.81
2022-10-25T06:15:03.831Z,12.81
2022-10-25T06:16:03.827Z,12.81
2022-10-25T06:17:03.820Z,12.81
2022-10-25T06:18:03.922Z,12.88
2022-10-25T06:19:03.904Z,12.88
2022-10-25T06:20:03.686Z,12.88
2022-10-25T06:21:03.741Z,12.88
2022-10-25T06:22:03.919Z,12.94
2022-10-25T06:23:06.048Z,12.94
2022-10-25T06:24:03.750Z,12.94
2022-10-25T06:25:03.744Z,12.88
2022-10-25T06:26:03.673Z,12.94
2022-10-25T06:27:03.820Z,12.94
2022-10-25T06:28:03.898Z,12.94
2022-10-25T06:29:04.090Z,12.94
2022-10-25T06:30:03.903Z,12.94
2022-10-25T06:31:04.070Z,12.94
2022-10-25T06:32:04.061Z,12.94
2022-10-25T06:33:04.068Z,12.94
2022-10-25T06:34:04.242Z,12.94
2022-10-25T06:35:04.147Z,12.94
2022-10-25T06:36:04.239Z,12.94
2022-10-25T06:37:04.231Z,12.94
2022-10-25T06:38:04.172Z,12.94
2022-10-25T06:39:05.943Z,12.94
2022-10-25T06:40:04.313Z,12.94
2022-10-25T06:41:04.468Z,12.94
2022-10-25T06:42:04.381Z,13.00
2022-10-25T06:43:04.465Z,13.00
2022-10-25T06:44:05.297Z,13.00
2022-10-25T06:45:03.588Z,13.00
2022-10-25T06:46:03.595Z,13.00
2022-10-25T06:47:18.040Z,13.06
2022-10-25T06:48:03.509Z,13.06
2022-10-25T06:49:03.670Z,13.19
2022-10-25T06:50:03.864Z,13.31
2022-10-25T06:51:03.823Z,13.38
2022-10-25T06:52:03.820Z,13.44
2022-10-25T06:53:03.991Z,13.56
2022-10-25T06:54:03.858Z,13.62
2022-10-25T06:55:03.915Z,13.75
2022-10-25T06:56:04.538Z,13.81
2022-10-25T06:57:04.070Z,13.88
2022-10-25T06:58:04.064Z,14.00
2022-10-25T06:59:04.308Z,14.06
2022-10-25T07:00:04.388Z,14.19
2022-10-25T07:01:03.669Z,14.31
2022-10-25T07:02:03.757Z,14.44
2022-10-25T07:03:03.814Z,14.56
2022-10-25T07:04:03.917Z,14.69
2022-10-25T07:05:03.986Z,14.75
2022-10-25T07:06:03.829Z,14.88
2022-10-25T07:07:03.821Z,14.94
2022-10-25T07:08:03.818Z,15.06
2022-10-25T07:09:03.983Z,15.12
2022-10-25T07:10:04.154Z,15.25
2022-10-25T07:11:04.143Z,15.31
2022-10-25T07:12:06.539Z,15.44
2022-10-25T07:13:04.391Z,15.56
2022-10-25T07:14:04.378Z,15.62
2022-10-25T07:15:04.377Z,15.69
2022-10-25T07:16:04.463Z,15.75
2022-10-25T07:17:04.470Z,15.81
2022-10-25T07:18:04.465Z,15.88
2022-10-25T07:19:03.510Z,15.94
2022-10-25T07:20:03.516Z,15.94
2022-10-25T07:21:03.588Z,16.00
2022-10-25T07:22:03.667Z,16.00
2022-10-25T07:23:05.414Z,16.00
2022-10-25T07:24:03.831Z,16.00
2022-10-25T07:25:04.818Z,16.06
2022-10-25T07:26:03.989Z,16.06
2022-10-25T07:27:04.060Z,16.06
2022-10-25T07:28:04.144Z,16.06
2022-10-25T07:29:04.150Z,16.06
2022-10-25T07:30:04.223Z,16.06
2022-10-25T07:31:04.222Z,16.12
2022-10-25T07:32:04.403Z,16.12
2022-10-25T07:33:04.468Z,16.19
2022-10-25T07:34:03.595Z,16.25
2022-10-25T07:35:03.594Z,16.25
2022-10-25T07:36:10.916Z,16.31
2022-10-25T07:37:03.755Z,16.44
2022-10-25T07:38:03.659Z,16.50
2022-10-25T07:39:03.700Z,16.50
2022-10-25T07:40:03.758Z,16.56
2022-10-25T07:41:03.741Z,16.56
2022-10-25T07:42:03.832Z,16.56
2022-10-25T07:43:04.877Z,16.69
2022-10-25T07:44:04.067Z,16.69
2022-10-25T07:45:04.066Z,16.75
2022-10-25T07:46:04.147Z,16.81
2022-10-25T07:47:04.149Z,16.81
2022-10-25T07:48:04.149Z,16.88
2022-10-25T07:49:04.310Z,16.88
2022-10-25T07:50:04.219Z,16.88
2022-10-25T07:51:04.470Z,16.88
2022-10-25T07:52:03.665Z,16.94
2022-10-25T07:53:03.677Z,16.94
2022-10-25T07:54:03.754Z,16.94
2022-10-25T07:55:03.664Z,16.94
2022-10-25T07:56:03.758Z,16.94
2022-10-25T07:57:03.827Z,16.94
2022-10-25T07:58:03.738Z,16.94
2022-10-25T07:59:03.852Z,16.94
2022-10-25T08:00:03.899Z,17.00
2022-10-25T08:01:03.994Z,16.94
2022-10-25T08:02:03.916Z,17.00
2022-10-25T08:03:04.118Z,17.06
2022-10-25T08:04:03.997Z,17.06
2022-10-25T08:05:03.909Z,17.06
2022-10-25T08:06:04.074Z,17.12
2022-10-25T08:07:03.980Z,17.12
2022-10-25T08:08:03.984Z,17.19
2022-10-25T08:09:09.568Z,17.19
2022-10-25T08:10:03.757Z,17.25
2022-10-25T08:11:03.899Z,17.25
2022-10-25T08:12:04.080Z,17.25
2022-10-25T08:13:03.982Z,17.25
2022-10-25T08:14:04.074Z,17.25
2022-10-25T08:15:04.229Z,17.31
2022-10-25T08:16:04.400Z,17.31
2022-10-25T08:17:04.388Z,17.38
2022-10-25T08:18:04.475Z,17.38
2022-10-25T08:19:04.468Z,17.38
2022-10-25T08:20:03.597Z,17.38
2022-10-25T08:21:04.123Z,17.44
2022-10-25T08:22:03.504Z,17.44
2022-10-25T08:23:03.681Z,17.50
2022-10-25T08:24:04.120Z,17.50
2022-10-25T08:25:04.064Z,17.50
2022-10-25T08:26:04.071Z,17.50
2022-10-25T08:27:04.232Z,17.44
2022-10-25T08:28:04.308Z,17.44
2022-10-25T08:29:04.545Z,17.44
2022-10-25T08:30:03.513Z,17.44
2022-10-25T08:31:03.544Z,17.44
2022-10-25T08:32:04.466Z,17.44
2022-10-25T08:33:03.515Z,17.44
2022-10-25T08:34:03.560Z,17.44
2022-10-25T08:35:03.669Z,17.44
2022-10-25T08:36:03.772Z,17.44
2022-10-25T08:37:03.757Z,17.44
2022-10-25T08:38:03.670Z,17.44
2022-10-25T08:39:03.679Z,17.44
2022-10-25T08:40:03.745Z,17.44
2022-10-25T08:41:03.754Z,17.44
2022-10-25T08:42:03.834Z,17.38
2022-10-25T08:43:03.835Z,17.38
2022-10-25T08:44:03.904Z,17.38
2022-10-25T08:45:03.982Z,17.38
2022-10-25T08:46:04.065Z,17.31
2022-10-25T08:47:04.165Z,17.25
2022-10-25T08:48:04.231Z,17.25
2022-10-25T08:49:04.320Z,17.25
2022-10-25T08:50:04.481Z,17.25
2022-10-25T08:51:04.393Z,17.19
2022-10-25T08:52:03.594Z,17.19
2022-10-25T08:53:03.520Z,17.12
2022-10-25T08:54:03.594Z,17.12
2022-10-25T08:55:04.849Z,17.12
2022-10-25T08:56:15.944Z,17.12
2022-10-25T08:57:14.923Z,17.12
2022-10-25T08:58:03.828Z,17.06
2022-10-25T08:59:03.914Z,17.06
2022-10-25T09:00:04.303Z,17.06
2022-10-25T09:01:04.563Z,17.06
2022-10-25T09:02:04.549Z,17.06
2022-10-25T09:03:04.559Z,17.06
2022-10-25T09:04:03.512Z,17.00
2022-10-25T09:05:03.536Z,17.00
2022-10-25T09:06:03.519Z,17.00
2022-10-25T09:07:03.508Z,17.00
2022-10-25T09:08:03.908Z,17.00
2022-10-25T09:09:03.993Z,16.94
2022-10-25T09:10:03.988Z,16.94
2022-10-25T09:11:04.089Z,16.94
2022-10-25T09:12:04.090Z,16.94
2022-10-25T09:13:06.986Z,16.88
2022-10-25T09:14:04.074Z,16.88
2022-10-25T09:15:03.991Z,16.88
2022-10-25T09:16:04.161Z,16.81
2022-10-25T09:17:04.152Z,16.81
2022-10-25T09:18:04.316Z,16.81
2022-10-25T09:19:04.390Z,16.75
2022-10-25T09:20:04.474Z,16.75
2022-10-25T09:21:03.511Z,16.75
2022-10-25T09:22:03.597Z,16.75
2022-10-25T09:23:03.758Z,16.75
2022-10-25T09:24:03.830Z,16.75
2022-10-25T09:25:03.919Z,16.75
2022-10-25T09:26:03.994Z,16.75
2022-10-25T09:27:03.992Z,16.75
2022-10-25T09:28:04.164Z,16.81
2022-10-25T09:29:04.162Z,16.81
2022-10-25T09:30:06.533Z,16.81
2022-10-25T09:31:04.329Z,16.75
2022-10-25T09:32:04.318Z,16.75
2022-10-25T09:33:04.453Z,16.75
2022-10-25T09:34:04.201Z,16.75
2022-10-25T09:35:03.604Z,16.81
2022-10-25T09:36:03.586Z,16.81
2022-10-25T09:37:03.768Z,16.81
2022-10-25T09:38:03.753Z,16.81
2022-10-25T09:39:03.918Z,16.81
2022-10-25T09:40:03.915Z,16.88
2022-10-25T09:41:03.907Z,16.81
2022-10-25T09:42:04.072Z,16.88
2022-10-25T09:43:04.065Z,16.88
2022-10-25T09:44:04.065Z,16.88
2022-10-25T09:45:04.230Z,16.88
2022-10-25T09:46:04.238Z,16.88
2022-10-25T09:47:04.397Z,16.88
2022-10-25T09:48:04.496Z,16.81
2022-10-25T09:49:03.503Z,16.88
2022-10-25T09:50:04.306Z,16.81
2022-10-25T09:51:04.402Z,16.81
2022-10-25T09:52:04.395Z,16.81
2022-10-25T09:53:04.400Z,16.81
2022-10-25T09:54:04.307Z,16.75
2022-10-25T09:55:04.301Z,16.75
2022-10-25T09:56:04.391Z,16.75
2022-10-25T09:57:04.555Z,16.75
2022-10-25T09:58:04.403Z,16.69
2022-10-25T09:59:04.517Z,16.69
2022-10-25T10:00:03.601Z,16.69
2022-10-25T10:01:03.673Z,16.69
2022-10-25T10:02:03.785Z,16.69
2022-10-25T10:03:03.620Z,16.69
2022-10-25T10:04:03.747Z,16.69
2022-10-25T10:05:03.666Z,16.69
2022-10-25T10:06:03.667Z,16.69
2022-10-25T10:07:03.839Z,16.69
2022-10-25T10:08:03.749Z,16.75
2022-10-25T10:09:03.836Z,16.75
2022-10-25T10:10:03.915Z,16.75
2022-10-25T10:11:03.922Z,16.75
2022-10-25T10:12:03.860Z,16.75
2022-10-25T10:13:03.826Z,16.81
2022-10-25T10:14:04.944Z,16.81
2022-10-25T10:15:03.903Z,16.81
2022-10-25T10:16:03.908Z,16.81
2022-10-25T10:17:04.033Z,16.88
2022-10-25T10:18:03.988Z,16.88
2022-10-25T10:19:03.981Z,16.88
2022-10-25T10:20:03.897Z,16.88
2022-10-25T10:21:03.987Z,16.94
2022-10-25T10:22:03.905Z,16.94
2022-10-25T10:23:05.008Z,16.94
2022-10-25T10:24:04.085Z,16.94
2022-10-25T10:25:04.082Z,16.94
2022-10-25T10:26:04.155Z,16.94
2022-10-25T10:27:04.151Z,17.00
2022-10-25T10:28:04.300Z,17.00
2022-10-25T10:29:06.526Z,17.00
2022-10-25T10:30:04.472Z,17.06
2022-10-25T10:31:04.395Z,17.06
2022-10-25T10:32:04.383Z,17.06
2022-10-25T10:33:04.470Z,17.06
2022-10-25T10:34:04.479Z,17.06
2022-10-25T10:35:04.463Z,17.06
2022-10-25T10:36:03.418Z,17.12
2022-10-25T10:37:03.672Z,17.12
2022-10-25T10:38:03.658Z,17.12
2022-10-25T10:39:03.951Z,17.12
2022-10-25T10:40:03.901Z,17.12
2022-10-25T10:41:03.988Z,17.12
2022-10-25T10:42:04.068Z,17.19
2022-10-25T10:43:04.080Z,17.19
2022-10-25T10:44:04.066Z,17.19
2022-10-25T10:45:04.069Z,17.25
2022-10-25T10:46:04.151Z,17.25
2022-10-25T10:47:04.312Z,17.25
2022-10-25T10:48:04.315Z,17.31
2022-10-25T10:49:03.506Z,17.31
2022-10-25T10:50:03.589Z,17.31
2022-10-25T10:51:04.721Z,17.31
2022-10-25T10:52:03.578Z,17.38
2022-10-25T10:53:03.673Z,17.38
2022-10-25T10:54:03.663Z,17.38
2022-10-25T10:55:03.748Z,17.44
2022-10-25T10:56:03.747Z,17.44
2022-10-25T10:57:03.612Z,17.44
2022-10-25T10:58:03.901Z,17.50
2022-10-25T10:59:04.062Z,17.50
2022-10-25T11:00:04.146Z,17.50
2022-10-25T11:01:04.403Z,17.56
2022-10-25T11:02:04.433Z,17.56
2022-10-25T11:03:04.486Z,17.56
2022-10-25T11:04:03.599Z,17.56
2022-10-25T11:05:03.666Z,17.62
2022-10-25T11:06:03.771Z,17.62
2022-10-25T11:07:03.827Z,17.62
2022-10-25T11:08:03.924Z,17.69
2022-10-25T11:09:03.750Z,17.69
2022-10-25T11:10:03.819Z,17.75
2022-10-25T11:11:03.991Z,17.75
2022-10-25T11:12:04.072Z,17.75
2022-10-25T11:13:04.139Z,17.75
2022-10-25T11:14:04.144Z,17.75
2022-10-25T11:15:04.236Z,17.81
2022-10-25T11:16:04.231Z,17.81
2022-10-25T11:17:04.309Z,17.81
2022-10-25T11:18:04.390Z,17.88
2022-10-25T11:19:04.467Z,17.88
2022-10-25T11:20:03.597Z,17.88
2022-10-25T11:21:03.676Z,17.88
2022-10-25T11:22:03.660Z,17.88
2022-10-25T11:23:05.089Z,17.88
2022-10-25T11:24:03.747Z,17.81
2022-10-25T11:25:03.830Z,17.81
2022-10-25T11:26:03.821Z,17.81
2022-10-25T11:27:03.828Z,17.81
2022-10-25T11:28:03.751Z,17.81
2022-10-25T11:29:03.668Z,17.81
2022-10-25T11:30:03.832Z,17.75
2022-10-25T11:31:03.899Z,17.75
2022-10-25T11:32:03.999Z,17.75
2022-10-25T11:33:03.905Z,17.75
2022-10-25T11:34:05.602Z,17.75
2022-10-25T11:35:04.067Z,17.75
2022-10-25T11:36:04.079Z,17.75
2022-10-25T11:37:03.994Z,17.75
2022-10-25T11:38:03.901Z,17.75
2022-10-25T11:39:03.981Z,17.69
2022-10-25T11:40:04.079Z,17.69
2022-10-25T11:41:03.987Z,17.69
2022-10-25T11:42:04.080Z,17.69
2022-10-25T11:43:04.062Z,17.69
2022-10-25T11:44:04.064Z,17.69
2022-10-25T11:45:04.065Z,17.69
2022-10-25T11:46:04.144Z,17.62
2022-10-25T11:47:04.141Z,17.62
2022-10-25T11:48:04.297Z,17.69
2022-10-25T11:49:04.382Z,17.69
2022-10-25T11:50:04.308Z,17.69
2022-10-25T11:51:04.466Z,17.69
2022-10-25T11:52:04.467Z,17.75
2022-10-25T11:53:04.476Z,17.69
2022-10-25T11:54:04.394Z,17.69
2022-10-25T11:55:04.386Z,17.69
2022-10-25T11:56:04.306Z,17.69
2022-10-25T11:57:04.421Z,17.69
2022-10-25T11:58:05.747Z,17.69
2022-10-25T11:59:04.315Z,17.69
2022-10-25T12:00:04.380Z,17.69
2022-10-25T12:01:04.459Z,17.69
2022-10-25T12:02:03.589Z,17.75
2022-10-25T12:03:03.645Z,17.75
2022-10-25T12:04:03.577Z,17.75
2022-10-25T12:05:03.533Z,17.75
2022-10-25T12:06:03.759Z,17.75
2022-10-25T12:07:03.668Z,17.75
2022-10-25T12:08:03.661Z,17.75
2022-10-25T12:09:03.742Z,17.75
2022-10-25T12:10:03.833Z,17.75
2022-10-25T12:11:03.827Z,17.75
2022-10-25T12:12:03.999Z,17.75
2022-10-25T12:13:03.905Z,17.75
2022-10-25T12:14:03.990Z,17.75
2022-10-25T12:15:03.834Z,17.75
2022-10-25T12:16:03.826Z,17.75
2022-10-25T12:17:03.774Z,17.75
2022-10-25T12:18:03.815Z,17.75
2022-10-25T12:19:03.830Z,17.81
2022-10-25T12:20:03.956Z,17.81
2022-10-25T12:21:04.145Z,17.75
2022-10-25T12:22:04.304Z,17.75
2022-10-25T12:23:04.305Z,17.75
2022-10-25T12:24:04.303Z,17.75
2022-10-25T12:25:04.494Z,17.75
2022-10-25T12:26:04.388Z,17.75
2022-10-25T12:27:03.513Z,17.75
2022-10-25T12:28:03.503Z,17.69
2022-10-25T12:29:03.595Z,17.69
2022-10-25T12:30:03.595Z,17.69
2022-10-25T12:31:03.913Z,17.69
2022-10-25T12:32:03.911Z,17.69
2022-10-25T12:33:03.908Z,17.69
2022-10-25T12:34:03.908Z,17.69
2022-10-25T12:35:03.904Z,17.62
2022-10-25T12:36:03.996Z,17.62
2022-10-25T12:37:03.987Z,17.62
2022-10-25T12:38:03.988Z,17.62
2022-10-25T12:39:03.904Z,17.62
2022-10-25T12:40:03.985Z,17.62
2022-10-25T12:41:03.911Z,17.62
2022-10-25T12:42:03.987Z,17.62
2022-10-25T12:43:03.902Z,17.62
2022-10-25T12:44:03.827Z,17.56
2022-10-25T12:45:03.997Z,17.56
2022-10-25T12:46:03.898Z,17.56
2022-10-25T12:47:04.070Z,17.56
2022-10-25T12:48:04.060Z,17.56
2022-10-25T12:49:04.233Z,17.56
2022-10-25T12:50:04.293Z,17.56
2022-10-25T12:51:04.307Z,17.62
2022-10-25T12:52:04.229Z,17.56